createdAt,value
2019-04-11T00:02:47.020Z,22.57
2019-04-11T00:06:49.809Z,24.00
2019-04-11T00:10:53.546Z,24.67
2019-04-11T00:14:56.955Z,23.73
2019-04-11T00:19:00.082Z,24.07
2019-04-11T00:23:03.306Z,21.40
2019-04-11T00:27:06.926Z,23.63
2019-04-11T00:31:09.996Z,26.83
2019-04-11T00:35:15.427Z,25.17
2019-04-11T00:39:19.494Z,27.50
2019-04-11T00:43:31.698Z,22.57
2019-04-11T00:47:27.668Z,24.87
2019-04-11T00:51:32.505Z,26.13
2019-04-11T00:55:35.737Z,27.60
2019-04-11T00:59:42.615Z,24.90
2019-04-11T01:03:47.424Z,24.77
2019-04-11T01:07:51.308Z,23.57
2019-04-11T01:11:56.381Z,23.40
2019-04-11T01:16:01.487Z,24.53
2019-04-11T01:20:06.936Z,24.43
2019-04-11T01:24:11.287Z,23.20
2019-04-11T01:28:14.993Z,25.20
2019-04-11T01:32:18.282Z,25.70
2019-04-11T01:36:21.352Z,25.07
2019-04-11T01:40:25.557Z,28.83
2019-04-11T01:44:30.403Z,25.20
2019-04-11T01:48:41.730Z,27.63
2019-04-11T01:52:45.046Z,25.37
2019-04-11T01:56:48.106Z,23.97
2019-04-11T02:00:56.768Z,24.40
2019-04-11T02:05:02.838Z,27.50
2019-04-11T02:09:09.852Z,26.60
2019-04-11T02:13:13.104Z,23.80
2019-04-11T02:17:16.790Z,25.93
2019-04-11T02:21:20.026Z,25.10
2019-04-11T02:25:28.246Z,26.60
2019-04-11T02:29:33.287Z,27.40
2019-04-11T02:33:37.133Z,22.03
2019-04-11T02:37:42.056Z,24.33
2019-04-11T02:41:46.924Z,25.47
2019-04-11T02:45:58.082Z,24.60
2019-04-11T02:49:57.269Z,22.53
2019-04-11T02:54:02.175Z,24.73
2019-04-11T02:58:07.606Z,24.97
2019-04-11T03:02:12.995Z,23.93
2019-04-11T03:06:17.571Z,28.27
2019-04-11T03:10:21.434Z,25.87
2019-04-11T03:14:25.179Z,26.27
2019-04-11T03:18:51.027Z,23.80
2019-04-11T03:22:34.487Z,25.07
2019-04-11T03:26:38.455Z,28.43
2019-04-11T03:31:06.889Z,24.97
2019-04-11T03:39:16.919Z,23.63
2019-04-11T03:43:09.338Z,26.50
2019-04-11T03:47:16.682Z,25.13
2019-04-11T03:51:10.947Z,24.90
2019-04-11T03:55:15.219Z,25.13
2019-04-11T03:59:21.181Z,27.30
2019-04-11T04:03:26.581Z,26.33
2019-04-11T04:07:29.872Z,24.37
2019-04-11T04:11:34.662Z,28.27
2019-04-11T04:16:06.312Z,23.63
2019-04-11T04:20:19.329Z,25.73
2019-04-11T04:24:27.464Z,26.77
2019-04-11T04:28:29.475Z,21.60
2019-04-11T04:32:36.069Z,24.77
2019-04-11T04:36:40.287Z,22.73
2019-04-11T04:41:00.699Z,21.13
2019-04-11T04:44:51.119Z,23.40
2019-04-11T04:48:55.800Z,22.10
2019-04-11T04:53:00.946Z,23.73
2019-04-11T04:57:05.015Z,21.00
2019-04-11T05:01:09.936Z,22.67
2019-04-11T05:05:13.726Z,23.87
2019-04-11T05:09:17.910Z,25.60
2019-04-11T05:13:21.657Z,22.00
2019-04-11T05:17:26.276Z,18.47
2019-04-11T05:21:30.167Z,25.13
2019-04-11T05:25:33.348Z,21.83
2019-04-11T05:29:37.537Z,23.23
2019-04-11T05:33:43.466Z,21.27
2019-04-11T05:37:47.145Z,18.73
2019-04-11T05:41:51.376Z,21.40
2019-04-11T05:45:56.298Z,20.30
2019-04-11T05:50:18.371Z,21.93
2019-04-11T05:54:21.451Z,19.03
2019-04-11T05:58:26.531Z,19.13
2019-04-11T06:02:35.325Z,19.53
2019-04-11T06:06:47.210Z,18.27
2019-04-11T06:10:56.755Z,17.13
2019-04-11T06:15:02.090Z,20.07
2019-04-11T06:19:24.946Z,23.03
2019-04-11T06:23:45.693Z,18.60
2019-04-11T06:27:50.851Z,17.90
2019-04-11T06:32:13.854Z,17.37
2019-04-11T06:36:20.983Z,15.57
2019-04-11T06:40:27.370Z,16.97
2019-04-11T06:44:38.196Z,15.60
2019-04-11T06:48:49.644Z,15.50
2019-04-11T06:52:53.142Z,16.13
2019-04-11T06:56:57.295Z,17.70
2019-04-11T07:01:03.521Z,16.50
2019-04-11T07:05:09.173Z,15.13
2019-04-11T07:09:27.283Z,15.67
2019-04-11T07:13:33.420Z,14.63
2019-04-11T07:17:54.793Z,15.03
2019-04-11T07:21:58.189Z,15.50
2019-04-11T07:26:06.047Z,13.27
2019-04-11T07:30:11.432Z,13.10
2019-04-11T07:34:19.528Z,14.50
2019-04-11T07:38:25.515Z,13.67
2019-04-11T07:42:47.114Z,14.93
2019-04-11T07:46:55.933Z,12.10
2019-04-11T07:51:01.961Z,12.90
2019-04-11T07:55:06.688Z,14.47
2019-04-11T07:59:20.355Z,13.47
2019-04-11T08:03:27.644Z,12.57
2019-04-11T08:07:42.530Z,13.10
2019-04-11T08:11:47.804Z,11.00
2019-04-11T08:16:10.542Z,12.70
2019-04-11T08:20:25.683Z,12.40
2019-04-11T08:24:42.924Z,11.70
2019-04-11T08:28:45.947Z,10.63
2019-04-11T08:32:56.730Z,11.83
2019-04-11T08:37:05.406Z,11.23
2019-04-11T08:41:25.729Z,10.67
2019-04-11T08:45:31.936Z,9.80
2019-04-11T08:49:37.594Z,9.83
2019-04-11T08:53:45.518Z,11.80
2019-04-11T08:57:50.526Z,9.47
2019-04-11T09:01:53.985Z,10.80
2019-04-11T09:06:02.802Z,8.27
2019-04-11T09:10:24.774Z,8.40
2019-04-11T09:14:46.508Z,8.60
2019-04-11T09:18:52.448Z,10.33
2019-04-11T09:22:57.539Z,11.40
2019-04-11T09:27:06.503Z,9.33
2019-04-11T09:31:29.681Z,9.50
2019-04-11T09:35:35.314Z,10.73
2019-04-11T09:39:56.816Z,10.60
2019-04-11T09:44:02.469Z,10.27
2019-04-11T09:48:24.782Z,9.97
2019-04-11T09:52:31.072Z,10.80
2019-04-11T09:56:53.981Z,8.87
2019-04-11T10:01:16.097Z,10.43
2019-04-11T10:05:24.443Z,11.00
2019-04-11T10:09:30.375Z,9.97
2019-04-11T10:13:53.555Z,11.10
2019-04-11T10:18:25.212Z,11.50
2019-04-11T10:22:32.020Z,8.93
2019-04-11T10:26:38.193Z,9.97
2019-04-11T10:31:00.270Z,9.10
2019-04-11T10:35:22.627Z,9.70
2019-04-11T10:39:33.586Z,8.63
2019-04-11T10:43:36.853Z,10.10
2019-04-11T10:47:40.899Z,9.47
2019-04-11T10:51:46.013Z,9.17
2019-04-11T10:55:51.711Z,9.57
2019-04-11T10:59:54.947Z,10.87
2019-04-11T11:04:15.825Z,9.23
2019-04-11T11:08:27.047Z,9.70
2019-04-11T11:12:32.958Z,11.60
2019-04-11T11:16:41.919Z,9.43
2019-04-11T11:20:50.214Z,9.00
2019-04-11T11:25:11.595Z,8.67
2019-04-11T11:29:18.930Z,8.63
2019-04-11T11:33:25.537Z,11.00
2019-04-11T11:37:35.334Z,6.73
2019-04-11T11:41:56.931Z,8.53
2019-04-11T11:46:17.807Z,9.63
2019-04-11T11:50:24.303Z,8.53
2019-04-11T11:54:29.603Z,8.63
2019-04-11T11:58:53.016Z,8.93
2019-04-11T12:02:56.941Z,8.10
2019-04-11T12:07:03.923Z,8.37
2019-04-11T12:11:10.118Z,9.70
2019-04-11T12:15:25.786Z,8.17
2019-04-11T12:19:43.565Z,8.97
2019-04-11T12:23:48.707Z,9.47
2019-04-11T12:27:47.774Z,9.83
2019-04-11T12:31:52.935Z,11.53
2019-04-11T12:36:01.294Z,12.20
2019-04-11T12:40:22.150Z,11.30
2019-04-11T12:44:29.627Z,10.13
2019-04-11T12:48:34.027Z,12.37
2019-04-11T12:52:41.299Z,11.90
2019-04-11T12:57:03.293Z,13.30
2019-04-11T13:01:11.152Z,14.53
2019-04-11T13:05:18.241Z,14.60
2019-04-11T13:09:23.169Z,18.10
2019-04-11T13:13:30.628Z,12.70
2019-04-11T13:17:35.658Z,13.40
2019-04-11T13:21:40.714Z,12.77
2019-04-11T13:25:45.781Z,14.00
2019-04-11T13:30:02.592Z,15.30
2019-04-11T13:34:07.602Z,13.60
2019-04-11T13:38:18.416Z,13.33
2019-04-11T13:42:28.965Z,13.20
2019-04-11T13:46:33.948Z,11.97
2019-04-11T13:50:37.015Z,12.40
2019-04-11T13:54:42.930Z,14.37
2019-04-11T13:59:04.457Z,14.67
2019-04-11T14:03:26.490Z,13.20
2019-04-11T14:07:29.871Z,12.97
2019-04-11T14:11:33.769Z,13.07
2019-04-11T14:15:40.700Z,14.63
2019-04-11T14:19:55.138Z,14.33
2019-04-11T14:24:16.603Z,16.30
2019-04-11T14:28:21.582Z,12.80
2019-04-11T14:32:26.536Z,13.87
2019-04-11T14:36:37.400Z,15.17
2019-04-11T14:40:42.602Z,14.00
2019-04-11T14:44:46.863Z,13.07
2019-04-11T14:48:51.951Z,13.30
2019-04-11T14:52:56.929Z,13.00
2019-04-11T14:57:03.583Z,14.37
2019-04-11T15:01:09.481Z,14.00
2019-04-11T15:05:17.461Z,13.30
2019-04-11T15:09:40.124Z,13.60
2019-04-11T15:13:48.128Z,11.77
2019-04-11T15:17:51.042Z,13.20
2019-04-11T15:22:13.913Z,12.70
2019-04-11T15:26:30.886Z,12.40
2019-04-11T15:30:54.225Z,13.63
2019-04-11T15:34:57.931Z,11.47
2019-04-11T15:39:06.016Z,13.30
2019-04-11T15:43:27.371Z,12.17
2019-04-11T15:47:30.972Z,11.80
2019-04-11T15:51:35.919Z,12.03
2019-04-11T15:55:57.572Z,12.83
2019-04-11T16:00:15.112Z,12.40
2019-04-11T16:04:28.895Z,12.90
2019-04-11T16:08:33.869Z,12.80
2019-04-11T16:12:38.787Z,11.03
2019-04-11T16:16:49.507Z,14.10
2019-04-11T16:20:54.527Z,11.60
2019-04-11T16:25:02.539Z,12.10
2019-04-11T16:29:10.888Z,12.47
2019-04-11T16:33:15.842Z,10.17
2019-04-11T16:37:19.315Z,11.10
2019-04-11T16:41:40.988Z,13.47
2019-04-11T16:46:02.600Z,13.17
2019-04-11T16:50:05.759Z,12.30
2019-04-11T16:54:09.829Z,12.40
2019-04-11T16:58:17.128Z,13.20
2019-04-11T17:02:21.869Z,13.07
2019-04-11T17:06:29.376Z,14.17
2019-04-11T17:10:46.237Z,12.10
2019-04-11T17:14:49.231Z,12.53
2019-04-11T17:18:52.295Z,11.63
2019-04-11T17:22:55.316Z,11.73
2019-04-11T17:26:58.367Z,12.07
2019-04-11T17:31:02.394Z,12.90
2019-04-11T17:35:05.807Z,12.03
2019-04-11T17:39:09.362Z,13.17
2019-04-11T17:43:13.880Z,10.23
2019-04-11T17:47:17.576Z,10.40
2019-04-11T17:51:20.615Z,10.57
2019-04-11T17:55:24.126Z,10.30
2019-04-11T17:59:28.996Z,11.30
2019-04-11T18:03:33.614Z,11.73
2019-04-11T18:07:36.618Z,11.00
2019-04-11T18:11:39.721Z,10.97
2019-04-11T18:15:42.790Z,12.30
2019-04-11T18:19:45.801Z,9.97
2019-04-11T18:23:50.061Z,10.37
2019-04-11T18:27:53.764Z,9.43
2019-04-11T18:31:56.815Z,11.17
2019-04-11T18:36:02.358Z,10.93
2019-04-11T18:40:10.162Z,14.20
2019-04-11T18:44:11.657Z,11.87
2019-04-11T18:48:14.705Z,10.50
2019-04-11T18:52:19.865Z,12.70
2019-04-11T18:56:22.997Z,10.37
2019-04-11T19:00:26.349Z,11.73
2019-04-11T19:04:32.546Z,10.43
2019-04-11T19:08:35.907Z,10.53
2019-04-11T19:12:39.051Z,12.43
2019-04-11T19:16:43.751Z,9.20
2019-04-11T19:20:49.864Z,9.77
2019-04-11T19:24:52.144Z,11.80
2019-04-11T19:28:55.770Z,10.50
2019-04-11T19:33:00.555Z,10.07
2019-04-11T19:37:04.729Z,14.43
2019-04-11T19:41:07.997Z,10.33
2019-04-11T19:45:11.151Z,10.77
2019-04-11T19:49:14.285Z,8.23
2019-04-11T19:53:17.361Z,15.20
2019-04-11T19:57:20.685Z,10.67
2019-04-11T20:01:23.866Z,9.37
2019-04-11T20:05:27.219Z,9.87
2019-04-11T20:09:30.475Z,10.87
2019-04-11T20:13:34.436Z,9.50
2019-04-11T20:17:44.333Z,9.00
2019-04-11T20:21:43.207Z,9.60
2019-04-11T20:25:49.584Z,7.70
2019-04-11T20:29:55.082Z,10.47
2019-04-11T20:33:56.255Z,8.90
2019-04-11T20:37:59.315Z,8.83
2019-04-11T20:42:02.483Z,8.80
2019-04-11T20:46:05.561Z,10.00
2019-04-11T20:50:09.876Z,10.93
2019-04-11T20:54:13.418Z,8.13
2019-04-11T20:58:26.755Z,8.90
2019-04-11T21:02:21.448Z,8.07
2019-04-11T21:06:24.811Z,10.50
2019-04-11T21:10:27.877Z,7.87
2019-04-11T21:14:31.080Z,11.33
2019-04-11T21:18:34.264Z,12.93
2019-04-11T21:22:37.396Z,8.07
2019-04-11T21:26:40.547Z,8.87
2019-04-11T21:30:43.770Z,12.47
2019-04-11T21:34:47.218Z,7.30
2019-04-11T21:38:50.354Z,8.23
2019-04-11T21:42:53.775Z,9.13
2019-04-11T21:46:56.811Z,8.73
2019-04-11T21:50:59.868Z,10.33
2019-04-11T21:55:04.153Z,9.63
2019-04-11T21:59:07.185Z,9.40
2019-04-11T22:03:10.348Z,12.07
2019-04-11T22:07:13.693Z,9.80
2019-04-11T22:11:16.857Z,9.17
2019-04-11T22:15:20.030Z,8.30
2019-04-11T22:19:23.183Z,9.70
2019-04-11T22:23:26.253Z,7.63
2019-04-11T22:27:29.578Z,10.10
2019-04-11T22:31:32.947Z,13.00
2019-04-11T22:35:37.221Z,9.30
2019-04-11T22:39:40.342Z,8.20
2019-04-11T22:43:43.432Z,8.57
2019-04-11T22:47:46.483Z,8.43
2019-04-11T22:51:49.550Z,8.40
2019-04-11T22:55:52.654Z,8.40
2019-04-11T22:59:55.712Z,8.93
2019-04-11T23:04:00.257Z,8.40
2019-04-11T23:08:03.789Z,9.07
2019-04-11T23:12:06.837Z,8.90
2019-04-11T23:16:12.042Z,9.07
2019-04-11T23:20:15.042Z,8.13
2019-04-11T23:24:18.206Z,9.10
2019-04-11T23:28:21.272Z,9.23
2019-04-11T23:32:24.471Z,10.10
2019-04-11T23:36:27.584Z,8.33
2019-04-11T23:40:30.623Z,9.57
2019-04-11T23:44:33.676Z,9.83
2019-04-11T23:48:36.752Z,8.93
2019-04-11T23:52:40.011Z,12.20
2019-04-11T23:56:43.085Z,10.30
